KPWA/PWA METAR and TAF weather

Enter ICAO airport designator
Station Type Date Time Source
KPWA METAR 2020/01/22 17:53 UTC NOAA

KPWA 221753Z 16022KT 4SM -RA BR OVC007 04/03 A2995 RMK AO2 PK WND 16029/1715 CIG 005V010 SLP145 P0000 60000 T00440033 10044 20033 58009 $


Station Type Date Time Source
KPWA Decoded METAR 2020/01/22 17:53 UTC NOAA

WILEY POST, OK, United States (KPWA) 35-32N 97-39W 397M
Jan 22, 2020 - 12:53 PM EST / 2020.01.22 1753 UTC
Wind: from the SSE (160 degrees) at 25 MPH (22 KT):0
Visibility: 4 mile(s):0
Sky conditions: overcast
Weather: light rain; mist
Precipitation last hour: A trace
Temperature: 39.9 F (4.4 C)
Dew Point: 37.9 F (3.3 C)
Relative Humidity: 92%
Pressure (altimeter): 29.95 in. Hg (1014 hPa)
Pressure tendency: 0.03 inches (0.9 hPa) lower than three hours ago
ob: KPWA 221753Z 16022KT 4SM -RA BR OVC007 04/03 A2995 RMK AO2 PK WND 16029/1715 CIG 005V010 SLP145 P0000 60000 T00440033 10044 20033 58009
cycle: 18

Station Type Date Time Source
KPWA TAF UTC NOAA

Error!

Example: see airport list